Terminal Aerodrome Forecast
Issued by NWS

Current Version | Previous Version | Text Only | Print | Product List | Glossary Off
Versions: 1 2 3 4 5 6 7 8 9 10 11 12 13 14 15 16 17 18 19 20 21 22 23 24 25 26 27 28 29 30 31 32

027
FTUS41 KRNK 250728 AAA
TAFLWB
TAF AMD
KLWB 250728Z 2507/2606 00000KT P6SM SCT250
      TEMPO 2509/2513 2SM BR SCT002
     FM251400 26007KT P6SM SCT050 SCT250
     FM251900 27006KT P6SM VCSH BKN050
     FM260200 00000KT P6SM SCT050 BKN120=

USA.gov is the U.S. government's official web portal to all federal, state and local government web resources and services.